Boston, Texas
Current Conditions -  °F | °C
As of 2:53 AM on Sunday 23 Nov 2014 (Local Time) from KTXK Reporting Station
Broken Clouds Broken Clouds  
Wind Chill: 59°   Ceiling: 1600
Heat Index: 59°   Visibility: 10mi
Dew Point: 59°   Wind: 16mph
Humidity: 100%   Direction: 130°SE
Pressure: 29.63"   Gusts: 24mph
Location:  33.4799°N, 94.4582°W
Report Text: KTXK 230853Z AUTO 13014G21KT 10SM FEW008 BKN016 15/15 A2963 RMK AO2 RAB17E33 SLP032 P0000 60001 T01500150 56031
Loading
Personal Weather Stations






























Interactive Weather Map New forecast layout! Learn more

10-Day Weather Forecast

Advertisements
Track Severe Weather on mobile